Time,TemperatureF,DewpointF,PressureIn,WindDirection,WindDirectionDegrees,WindSpeedMPH,WindSpeedGustMPH,Humidity,HourlyPrecipIn,Conditions,Clouds,dailyrainin,SoftwareType,DateUTC
2013-01-06 00:02:00,38.9,36.2,30.10,ENE,68,2.5,2.7,90,0.00,,,0.00,WUHU216HW,2013-01-06 08:02:00,
2013-01-06 00:07:00,38.7,36.0,30.10,ENE,68,1.1,2.7,90,0.00,,,0.00,WUHU216HW,2013-01-06 08:07:00,
2013-01-06 00:12:00,38.7,36.0,30.10,ENE,68,2.0,2.9,90,0.00,,,0.00,WUHU216HW,2013-01-06 08:12:00,
2013-01-06 00:17:00,38.7,36.0,30.10,ESE,113,1.1,2.9,90,0.00,,,0.00,WUHU216HW,2013-01-06 08:17:00,
2013-01-06 00:22:00,38.7,36.0,30.10,ESE,113,1.1,1.8,90,0.00,,,0.00,WUHU216HW,2013-01-06 08:22:00,
2013-01-06 00:27:00,38.7,36.0,30.10,East,90,1.8,1.8,90,0.00,,,0.00,WUHU216HW,2013-01-06 08:27:00,
2013-01-06 00:32:00,38.5,35.8,30.10,West,270,1.6,1.8,90,0.00,,,0.00,WUHU216HW,2013-01-06 08:32:00,
2013-01-06 00:37:00,38.5,35.8,30.10,SSE,158,0.4,1.6,90,0.00,,,0.00,WUHU216HW,2013-01-06 08:37:00,
2013-01-06 00:42:00,38.5,35.8,30.10,East,90,1.3,2.7,90,0.00,,,0.00,WUHU216HW,2013-01-06 08:42:00,
2013-01-06 00:47:00,38.5,35.8,30.11,NW,315,1.1,2.7,90,0.00,,,0.00,WUHU216HW,2013-01-06 08:47:00,
2013-01-06 00:52:00,38.5,35.8,30.11,North,0,0.7,2.5,90,0.00,,,0.00,WUHU216HW,2013-01-06 08:52:00,
2013-01-06 00:57:00,38.5,35.8,30.11,ESE,113,1.1,2.5,90,0.00,,,0.00,WUHU216HW,2013-01-06 08:57:00,
2013-01-06 01:02:00,38.2,35.5,30.11,NE,45,1.3,2.0,90,0.00,,,0.00,WUHU216HW,2013-01-06 09:02:00,
2013-01-06 01:07:00,37.8,35.1,30.11,ENE,68,0.0,2.0,90,0.00,,,0.00,WUHU216HW,2013-01-06 09:07:00,
2013-01-06 01:12:00,37.6,34.9,30.11,ENE,68,0.4,1.8,90,0.00,,,0.00,WUHU216HW,2013-01-06 09:12:00,
2013-01-06 01:17:00,37.4,34.7,30.11,SSE,158,0.7,1.8,90,0.00,,,0.00,WUHU216HW,2013-01-06 09:17:00,
2013-01-06 01:22:00,37.3,34.3,30.11,SE,135,0.9,1.8,89,0.00,,,0.00,WUHU216HW,2013-01-06 09:22:00,
2013-01-06 01:27:00,37.3,34.3,30.11,SE,135,2.2,2.2,89,0.00,,,0.00,WUHU216HW,2013-01-06 09:27:00,
2013-01-06 01:32:00,37.3,34.3,30.11,SE,135,0.0,2.2,89,0.00,,,0.00,WUHU216HW,2013-01-06 09:32:00,
2013-01-06 01:37:00,37.4,34.5,30.11,NNE,23,1.3,2.2,89,0.00,,,0.00,WUHU216HW,2013-01-06 09:37:00,
2013-01-06 01:42:00,37.3,34.3,30.11,ENE,68,1.1,2.2,89,0.00,,,0.00,WUHU216HW,2013-01-06 09:42:00,
2013-01-06 01:48:00,36.9,33.9,30.11,North,0,0.4,1.3,89,0.00,,,0.00,WUHU216HW,2013-01-06 09:48:00,
2013-01-06 01:53:00,36.7,33.8,30.11,ESE,113,2.5,2.5,89,0.00,,,0.00,WUHU216HW,2013-01-06 09:53:00,
2013-01-06 01:58:00,36.5,33.6,30.11,SSE,158,1.3,3.4,89,0.00,,,0.00,WUHU216HW,2013-01-06 09:58:00,
2013-01-06 02:03:00,36.5,33.8,30.12,ENE,68,1.1,3.4,90,0.00,,,0.00,WUHU216HW,2013-01-06 10:03:00,
2013-01-06 02:08:00,36.7,34.0,30.11,ESE,113,1.6,2.7,90,0.00,,,0.00,WUHU216HW,2013-01-06 10:08:00,
2013-01-06 02:13:00,36.7,34.0,30.12,NE,45,1.1,2.7,90,0.00,,,0.00,WUHU216HW,2013-01-06 10:13:00,
2013-01-06 02:18:00,37.1,34.4,30.13,NW,315,2.9,3.4,90,0.00,,,0.00,WUHU216HW,2013-01-06 10:18:00,
2013-01-06 02:23:00,37.3,34.6,30.12,ENE,68,1.6,3.4,90,0.00,,,0.00,WUHU216HW,2013-01-06 10:23:00,
2013-01-06 02:28:00,37.3,34.6,30.12,East,90,0.0,1.8,90,0.00,,,0.00,WUHU216HW,2013-01-06 10:28:00,
2013-01-06 02:33:00,37.4,34.7,30.12,SE,135,2.5,2.5,90,0.00,,,0.00,WUHU216HW,2013-01-06 10:33:00,
2013-01-06 02:38:00,37.6,35.2,30.12,SE,135,1.1,2.7,91,0.00,,,0.00,WUHU216HW,2013-01-06 10:38:00,
2013-01-06 02:43:00,38.0,35.6,30.12,SW,225,2.9,4.3,91,0.00,,,0.00,WUHU216HW,2013-01-06 10:43:00,
2013-01-06 02:48:00,38.5,36.1,30.12,SE,135,5.6,5.6,91,0.00,,,0.00,WUHU216HW,2013-01-06 10:48:00,
2013-01-06 02:53:00,38.9,36.5,30.12,SE,135,4.5,5.6,91,0.00,,,0.00,WUHU216HW,2013-01-06 10:53:00,
2013-01-06 02:58:00,39.2,37.4,30.12,SSE,158,4.7,4.7,93,0.00,,,0.00,WUHU216HW,2013-01-06 10:58:00,
2013-01-06 03:03:00,39.4,37.5,30.11,SE,135,5.1,5.6,93,0.00,,,0.00,WUHU216HW,2013-01-06 11:03:00,
2013-01-06 03:08:00,39.6,37.7,30.11,ESE,113,4.3,5.6,93,0.00,,,0.00,WUHU216HW,2013-01-06 11:08:00,
2013-01-06 03:13:00,39.8,37.6,30.11,SSE,158,4.0,5.6,92,0.00,,,0.00,WUHU216HW,2013-01-06 11:13:00,
2013-01-06 03:18:00,40.0,37.8,30.12,SSE,158,5.6,5.6,92,0.00,,,0.00,WUHU216HW,2013-01-06 11:18:00,
2013-01-06 03:23:00,40.1,38.0,30.12,SE,135,1.1,5.6,92,0.00,,,0.00,WUHU216HW,2013-01-06 11:23:00,
2013-01-06 03:28:00,40.3,38.2,30.12,SE,135,4.0,4.7,92,0.00,,,0.00,WUHU216HW,2013-01-06 11:28:00,
2013-01-06 03:34:00,40.5,38.6,30.12,ESE,113,4.0,4.7,93,0.00,,,0.00,WUHU216HW,2013-01-06 11:34:00,
2013-01-06 03:39:00,40.7,38.5,30.12,SSE,158,4.3,4.7,92,0.00,,,0.00,WUHU216HW,2013-01-06 11:39:00,
2013-01-06 03:44:00,40.7,38.5,30.12,North,0,0.9,4.3,92,0.00,,,0.00,WUHU216HW,2013-01-06 11:44:00,
2013-01-06 03:49:00,40.9,38.7,30.12,South,180,2.2,4.3,92,0.00,,,0.00,WUHU216HW,2013-01-06 11:49:00,
2013-01-06 03:54:00,40.9,38.7,30.12,ESE,113,4.7,4.7,92,0.00,,,0.00,WUHU216HW,2013-01-06 11:54:00,
2013-01-06 03:59:00,41.0,39.2,30.12,SE,135,6.3,6.3,93,0.00,,,0.00,WUHU216HW,2013-01-06 11:59:00,
2013-01-06 04:04:00,41.2,39.3,30.12,ESE,113,4.5,6.3,93,0.00,,,0.00,WUHU216HW,2013-01-06 12:04:00,
2013-01-06 04:09:00,41.2,39.3,30.11,SE,135,4.9,8.1,93,0.00,,,0.00,WUHU216HW,2013-01-06 12:09:00,
2013-01-06 04:14:00,41.2,39.1,30.11,SE,135,4.0,8.1,92,0.00,,,0.00,WUHU216HW,2013-01-06 12:14:00,
2013-01-06 04:19:00,41.4,39.2,30.11,SE,135,6.0,6.3,92,0.00,,,0.00,WUHU216HW,2013-01-06 12:19:00,
2013-01-06 04:24:00,41.4,39.5,30.12,ESE,113,5.8,6.7,93,0.00,,,0.00,WUHU216HW,2013-01-06 12:24:00,
2013-01-06 04:29:00,41.4,39.5,30.12,SSE,158,8.1,13.0,93,0.00,,,0.00,WUHU216HW,2013-01-06 12:29:00,
2013-01-06 04:34:00,41.4,39.2,30.12,SE,135,6.5,13.0,92,0.00,,,0.00,WUHU216HW,2013-01-06 12:34:00,
2013-01-06 04:39:00,41.4,39.2,30.12,SE,135,5.4,7.4,92,0.00,,,0.00,WUHU216HW,2013-01-06 12:39:00,
2013-01-06 04:44:00,41.4,39.5,30.13,ENE,68,7.4,7.4,93,0.00,,,0.00,WUHU216HW,2013-01-06 12:44:00,
2013-01-06 04:49:00,41.6,39.4,30.12,South,180,4.0,7.4,92,0.00,,,0.00,WUHU216HW,2013-01-06 12:49:00,
2013-01-06 04:54:00,41.6,39.4,30.13,SE,135,4.0,6.3,92,0.00,,,0.00,WUHU216HW,2013-01-06 12:54:00,
2013-01-06 04:59:00,41.6,39.4,30.12,SSW,203,3.8,9.2,92,0.00,,,0.00,WUHU216HW,2013-01-06 12:59:00,
2013-01-06 05:04:00,41.6,39.4,30.12,ESE,113,1.6,9.2,92,0.00,,,0.00,WUHU216HW,2013-01-06 13:04:00,
2013-01-06 05:09:00,41.6,39.4,30.12,SE,135,2.7,8.5,92,0.00,,,0.00,WUHU216HW,2013-01-06 13:09:00,
2013-01-06 05:14:00,41.6,39.4,30.12,SE,135,3.4,8.5,92,0.00,,,0.00,WUHU216HW,2013-01-06 13:14:00,
2013-01-06 05:19:00,41.6,39.4,30.12,South,180,4.0,5.1,92,0.00,,,0.00,WUHU216HW,2013-01-06 13:19:00,
2013-01-06 05:24:00,41.6,39.4,30.13,SSE,158,1.8,5.1,92,0.00,,,0.00,WUHU216HW,2013-01-06 13:24:00,
2013-01-06 05:29:00,41.6,39.4,30.12,SSW,203,2.5,3.6,92,0.00,,,0.00,WUHU216HW,2013-01-06 13:29:00,
2013-01-06 05:34:00,41.6,39.4,30.12,SE,135,1.8,3.8,92,0.00,,,0.00,WUHU216HW,2013-01-06 13:34:00,
2013-01-06 05:39:00,41.6,39.4,30.12,SE,135,2.7,3.8,92,0.00,,,0.00,WUHU216HW,2013-01-06 13:39:00,
2013-01-06 05:44:00,41.6,39.4,30.12,SSW,203,0.2,4.7,92,0.00,,,0.00,WUHU216HW,2013-01-06 13:44:00,
2013-01-06 05:49:00,41.6,39.4,30.12,West,270,2.5,4.7,92,0.00,,,0.00,WUHU216HW,2013-01-06 13:49:00,
2013-01-06 05:54:00,41.6,39.4,30.12,WSW,248,2.9,2.9,92,0.00,,,0.00,WUHU216HW,2013-01-06 13:54:00,
2013-01-06 05:59:00,41.8,39.6,30.12,SE,135,2.9,2.9,92,0.00,,,0.00,WUHU216HW,2013-01-06 13:59:00,
2013-01-06 06:04:00,41.6,39.4,30.12,WSW,248,1.1,3.6,92,0.00,,,0.00,WUHU216HW,2013-01-06 14:04:00,
2013-01-06 06:09:00,41.6,39.4,30.12,SSE,158,3.4,3.6,92,0.00,,,0.00,WUHU216HW,2013-01-06 14:09:00,
2013-01-06 06:14:00,41.6,39.2,30.12,ESE,113,2.2,5.4,91,0.00,,,0.00,WUHU216HW,2013-01-06 14:14:00,
2013-01-06 06:19:00,41.6,39.2,30.11,SE,135,8.1,8.1,91,0.00,,,0.00,WUHU216HW,2013-01-06 14:19:00,
2013-01-06 06:24:00,41.6,39.2,30.11,SW,225,3.4,8.7,91,0.00,,,0.00,WUHU216HW,2013-01-06 14:24:00,
2013-01-06 06:29:00,41.6,39.2,30.11,ESE,113,6.0,8.7,91,0.00,,,0.00,WUHU216HW,2013-01-06 14:29:00,
2013-01-06 06:34:00,41.4,39.0,30.11,SE,135,6.5,7.6,91,0.00,,,0.00,WUHU216HW,2013-01-06 14:34:00,
2013-01-06 06:39:00,41.4,39.0,30.11,ESE,113,1.8,7.6,91,0.00,,,0.00,WUHU216HW,2013-01-06 14:39:00,
2013-01-06 06:44:00,41.4,39.0,30.12,SSW,203,2.5,6.9,91,0.00,,,0.00,WUHU216HW,2013-01-06 14:44:00,
2013-01-06 06:49:00,41.4,39.0,30.12,SE,135,2.9,6.9,91,0.00,,,0.00,WUHU216HW,2013-01-06 14:49:00,
2013-01-06 06:54:00,41.4,39.0,30.12,ENE,68,1.6,4.0,91,0.00,,,0.00,WUHU216HW,2013-01-06 14:54:00,
2013-01-06 06:59:00,41.2,38.8,30.12,SE,135,3.8,4.7,91,0.00,,,0.00,WUHU216HW,2013-01-06 14:59:00,
2013-01-06 07:04:00,41.2,38.8,30.13,SSE,158,3.4,6.3,91,0.00,,,0.00,WUHU216HW,2013-01-06 15:04:00,
2013-01-06 07:09:00,41.2,38.8,30.13,SSE,158,3.4,6.3,91,0.00,,,0.00,WUHU216HW,2013-01-06 15:09:00,
2013-01-06 07:39:00,41.0,38.6,30.12,ESE,113,3.8,4.3,91,0.00,,,0.00,WUHU216HW,2013-01-06 15:39:00,
2013-01-06 07:44:00,41.0,38.6,30.12,South,180,3.4,4.3,91,0.00,,,0.00,WUHU216HW,2013-01-06 15:44:00,
2013-01-06 07:49:00,40.9,38.4,30.12,SE,135,4.0,4.0,91,0.00,,,0.00,WUHU216HW,2013-01-06 15:49:00,
2013-01-06 07:54:00,40.9,38.4,30.13,SE,135,5.4,5.4,91,0.00,,,0.00,WUHU216HW,2013-01-06 15:54:00,
2013-01-06 07:59:00,40.9,38.4,30.13,SSW,203,3.4,5.4,91,0.00,,,0.00,WUHU216HW,2013-01-06 15:59:00,
2013-01-06 08:04:00,40.9,38.4,30.13,WNW,293,0.2,4.5,91,0.00,,,0.00,WUHU216HW,2013-01-06 16:04:00,
2013-01-06 08:09:00,40.9,38.4,30.13,SE,135,2.5,4.0,91,0.00,,,0.00,WUHU216HW,2013-01-06 16:09:00,
2013-01-06 08:14:00,40.9,38.4,30.13,NW,315,0.7,3.1,91,0.00,,,0.00,WUHU216HW,2013-01-06 16:14:00,
2013-01-06 08:19:00,40.9,38.4,30.14,SSW,203,1.3,3.1,91,0.00,,,0.00,WUHU216HW,2013-01-06 16:19:00,
2013-01-06 08:24:00,40.7,38.3,30.13,SSE,158,3.4,3.4,91,0.00,,,0.00,WUHU216HW,2013-01-06 16:24:00,
2013-01-06 08:29:00,40.9,38.4,30.14,WNW,293,2.2,3.8,91,0.00,,,0.00,WUHU216HW,2013-01-06 16:29:00,
2013-01-06 08:34:00,41.0,38.6,30.13,WSW,248,0.4,3.8,91,0.00,,,0.00,WUHU216HW,2013-01-06 16:34:00,
2013-01-06 08:39:00,41.0,38.6,30.13,SE,135,0.9,3.4,91,0.00,,,0.00,WUHU216HW,2013-01-06 16:39:00,
2013-01-06 08:44:00,41.0,38.6,30.12,ESE,113,3.8,5.1,91,0.01,,,0.01,WUHU216HW,2013-01-06 16:44:00,
2013-01-06 08:49:00,41.0,38.6,30.12,SSE,158,4.7,5.1,91,0.01,,,0.01,WUHU216HW,2013-01-06 16:49:00,
2013-01-06 08:54:00,41.2,38.8,30.13,WSW,248,4.5,4.7,91,0.01,,,0.01,WUHU216HW,2013-01-06 16:54:00,
2013-01-06 08:59:00,41.2,38.8,30.13,ESE,113,3.6,8.5,91,0.01,,,0.01,WUHU216HW,2013-01-06 16:59:00,
2013-01-06 09:04:00,41.2,38.8,30.13,SSW,203,1.6,8.5,91,0.01,,,0.01,WUHU216HW,2013-01-06 17:04:00,
2013-01-06 09:09:00,41.2,38.8,30.13,SSE,158,5.4,6.3,91,0.01,,,0.01,WUHU216HW,2013-01-06 17:09:00,
2013-01-06 09:14:00,41.4,39.0,30.13,East,90,0.9,5.8,91,0.01,,,0.01,WUHU216HW,2013-01-06 17:14:00,
2013-01-06 09:19:00,41.4,39.0,30.13,SE,135,4.7,6.3,91,0.01,,,0.01,WUHU216HW,2013-01-06 17:19:00,
2013-01-06 09:24:00,41.4,39.0,30.13,ESE,113,5.4,6.3,91,0.01,,,0.01,WUHU216HW,2013-01-06 17:24:00,
2013-01-06 09:29:00,41.4,39.0,30.14,SE,135,6.3,6.3,91,0.01,,,0.01,WUHU216HW,2013-01-06 17:29:00,
2013-01-06 09:34:00,41.4,39.0,30.14,East,90,4.9,6.3,91,0.01,,,0.01,WUHU216HW,2013-01-06 17:34:00,
2013-01-06 09:39:00,41.6,39.2,30.14,SW,225,1.6,5.4,91,0.00,,,0.01,WUHU216HW,2013-01-06 17:39:00,
2013-01-06 09:44:00,41.6,39.2,30.14,SSE,158,2.5,5.4,91,0.00,,,0.01,WUHU216HW,2013-01-06 17:44:00,
2013-01-06 09:49:00,41.8,39.3,30.13,SE,135,4.9,7.8,91,0.00,,,0.01,WUHU216HW,2013-01-06 17:49:00,
2013-01-06 09:54:00,41.8,39.3,30.14,SSE,158,3.6,7.8,91,0.00,,,0.01,WUHU216HW,2013-01-06 17:54:00,
2013-01-06 09:59:00,41.9,39.5,30.14,South,180,3.4,4.7,91,0.00,,,0.01,WUHU216HW,2013-01-06 17:59:00,
2013-01-06 10:04:00,42.1,39.7,30.14,SSE,158,5.4,6.3,91,0.00,,,0.01,WUHU216HW,2013-01-06 18:04:00,
2013-01-06 10:09:00,41.9,39.5,30.14,SE,135,3.4,6.3,91,0.00,,,0.01,WUHU216HW,2013-01-06 18:09:00,
2013-01-06 10:14:00,42.1,39.7,30.14,South,180,2.7,10.3,91,0.00,,,0.01,WUHU216HW,2013-01-06 18:14:00,
2013-01-06 10:19:00,42.3,39.6,30.14,SSE,158,1.1,10.3,90,0.00,,,0.01,WUHU216HW,2013-01-06 18:19:00,
2013-01-06 10:24:00,42.3,39.6,30.14,South,180,8.3,8.3,90,0.00,,,0.01,WUHU216HW,2013-01-06 18:24:00,
2013-01-06 10:29:00,42.3,39.6,30.14,SSE,158,6.9,8.3,90,0.00,,,0.01,WUHU216HW,2013-01-06 18:29:00,
2013-01-06 10:34:00,42.5,39.8,30.14,ESE,113,11.4,11.4,90,0.00,,,0.01,WUHU216HW,2013-01-06 18:34:00,
2013-01-06 10:39:00,42.5,39.8,30.14,South,180,4.9,11.4,90,0.00,,,0.01,WUHU216HW,2013-01-06 18:39:00,
2013-01-06 10:44:00,42.5,39.8,30.14,SE,135,7.6,7.6,90,0.00,,,0.01,WUHU216HW,2013-01-06 18:44:00,
2013-01-06 10:49:00,42.7,40.0,30.14,SSE,158,3.8,7.6,90,0.00,,,0.01,WUHU216HW,2013-01-06 18:49:00,
2013-01-06 10:54:00,42.8,40.1,30.14,ESE,113,4.0,4.7,90,0.00,,,0.01,WUHU216HW,2013-01-06 18:54:00,
2013-01-06 10:59:00,42.8,40.1,30.14,South,180,6.3,6.3,90,0.00,,,0.01,WUHU216HW,2013-01-06 18:59:00,
2013-01-06 11:04:00,42.8,40.1,30.14,SE,135,6.0,6.3,90,0.00,,,0.01,WUHU216HW,2013-01-06 19:04:00,
2013-01-06 11:09:00,42.8,40.1,30.13,SE,135,5.4,6.0,90,0.00,,,0.01,WUHU216HW,2013-01-06 19:09:00,
2013-01-06 11:14:00,43.0,40.3,30.13,SW,225,2.2,6.7,90,0.00,,,0.01,WUHU216HW,2013-01-06 19:14:00,
2013-01-06 11:19:00,43.0,40.1,30.13,SSW,203,6.3,6.7,89,0.00,,,0.01,WUHU216HW,2013-01-06 19:19:00,
2013-01-06 11:24:00,43.2,40.5,30.12,SW,225,3.6,6.3,90,0.00,,,0.01,WUHU216HW,2013-01-06 19:24:00,
2013-01-06 11:29:00,43.2,40.2,30.12,SSE,158,1.8,4.3,89,0.00,,,0.01,WUHU216HW,2013-01-06 19:29:00,
2013-01-06 11:34:00,43.4,40.4,30.12,SSW,203,4.0,7.2,89,0.00,,,0.01,WUHU216HW,2013-01-06 19:34:00,
2013-01-06 11:39:00,43.4,40.4,30.12,SSE,158,7.6,7.6,89,0.00,,,0.01,WUHU216HW,2013-01-06 19:39:00,
2013-01-06 11:45:00,43.6,40.6,30.11,SSW,203,5.4,9.2,89,0.00,,,0.01,WUHU216HW,2013-01-06 19:45:00,
2013-01-06 11:50:00,43.7,40.8,30.11,South,180,4.0,9.2,89,0.00,,,0.01,WUHU216HW,2013-01-06 19:50:00,
2013-01-06 11:55:00,43.9,40.6,30.11,South,180,3.6,5.4,88,0.00,,,0.01,WUHU216HW,2013-01-06 19:55:00,
2013-01-06 12:00:00,44.1,40.8,30.11,SE,135,1.8,5.4,88,0.00,,,0.01,WUHU216HW,2013-01-06 20:00:00,
2013-01-06 12:05:00,44.3,41.0,30.11,SE,135,1.1,2.5,88,0.00,,,0.01,WUHU216HW,2013-01-06 20:05:00,
2013-01-06 12:10:00,44.3,41.0,30.11,SE,135,2.2,4.7,88,0.00,,,0.01,WUHU216HW,2013-01-06 20:10:00,
2013-01-06 12:15:00,44.1,40.8,30.11,South,180,2.5,4.7,88,0.00,,,0.01,WUHU216HW,2013-01-06 20:15:00,
2013-01-06 12:20:00,44.1,40.8,30.11,SSE,158,0.7,3.4,88,0.00,,,0.01,WUHU216HW,2013-01-06 20:20:00,
2013-01-06 12:25:00,44.1,40.8,30.11,SSE,158,3.6,3.6,88,0.00,,,0.01,WUHU216HW,2013-01-06 20:25:00,
2013-01-06 12:30:00,43.9,40.6,30.10,SE,135,1.8,3.6,88,0.00,,,0.01,WUHU216HW,2013-01-06 20:30:00,
2013-01-06 12:35:00,43.9,40.6,30.10,SE,135,0.4,1.8,88,0.00,,,0.01,WUHU216HW,2013-01-06 20:35:00,
2013-01-06 12:40:00,43.9,40.6,30.10,SW,225,4.0,4.0,88,0.00,,,0.01,WUHU216HW,2013-01-06 20:40:00,
2013-01-06 12:45:00,43.9,40.6,30.10,SSE,158,2.2,4.0,88,0.00,,,0.01,WUHU216HW,2013-01-06 20:45:00,
2013-01-06 12:50:00,43.9,40.6,30.10,SSE,158,2.2,4.7,88,0.00,,,0.01,WUHU216HW,2013-01-06 20:50:00,
2013-01-06 12:55:00,43.9,40.6,30.10,WSW,248,1.1,4.7,88,0.00,,,0.01,WUHU216HW,2013-01-06 20:55:00,
2013-01-06 13:00:00,43.9,40.6,30.10,SE,135,0.4,3.1,88,0.00,,,0.01,WUHU216HW,2013-01-06 21:00:00,
2013-01-06 13:05:00,44.1,40.8,30.10,SE,135,2.5,2.5,88,0.00,,,0.01,WUHU216HW,2013-01-06 21:05:00,
2013-01-06 13:10:00,44.3,41.0,30.10,East,90,0.9,2.5,88,0.00,,,0.01,WUHU216HW,2013-01-06 21:10:00,
2013-01-06 13:15:00,44.3,41.0,30.09,WNW,293,1.8,2.5,88,0.00,,,0.01,WUHU216HW,2013-01-06 21:15:00,
2013-01-06 13:20:00,44.6,41.3,30.09,WSW,248,1.8,2.5,88,0.00,,,0.01,WUHU216HW,2013-01-06 21:20:00,
2013-01-06 13:25:00,44.8,41.5,30.09,SSE,158,4.9,4.9,88,0.00,,,0.01,WUHU216HW,2013-01-06 21:25:00,
2013-01-06 13:30:00,45.0,41.7,30.09,ESE,113,0.0,4.9,88,0.00,,,0.01,WUHU216HW,2013-01-06 21:30:00,
2013-01-06 13:35:00,44.8,41.5,30.09,WSW,248,0.7,4.0,88,0.00,,,0.01,WUHU216HW,2013-01-06 21:35:00,
2013-01-06 13:40:00,44.8,41.5,30.09,WSW,248,0.7,1.8,88,0.00,,,0.01,WUHU216HW,2013-01-06 21:40:00,
2013-01-06 14:05:00,45.0,41.4,30.09,South,180,1.8,1.8,87,0.00,,,0.01,WUHU216HW,2013-01-06 22:05:00,
2013-01-06 14:10:00,45.0,41.4,30.09,SSE,158,1.1,2.7,87,0.00,,,0.01,WUHU216HW,2013-01-06 22:10:00,
2013-01-06 14:15:00,45.0,41.4,30.09,ENE,68,1.1,2.7,87,0.00,,,0.01,WUHU216HW,2013-01-06 22:15:00,
2013-01-06 14:20:00,45.0,41.4,30.08,SE,135,0.7,3.8,87,0.00,,,0.01,WUHU216HW,2013-01-06 22:20:00,
2013-01-06 14:25:00,44.8,41.2,30.08,SE,135,1.1,3.8,87,0.00,,,0.01,WUHU216HW,2013-01-06 22:25:00,
2013-01-06 14:30:00,44.6,41.1,30.08,North,0,0.4,2.2,87,0.00,,,0.01,WUHU216HW,2013-01-06 22:30:00,
2013-01-06 14:35:00,44.8,41.2,30.07,SE,135,1.6,2.0,87,0.00,,,0.01,WUHU216HW,2013-01-06 22:35:00,
2013-01-06 14:40:00,44.8,41.2,30.07,SE,135,0.0,3.1,87,0.00,,,0.01,WUHU216HW,2013-01-06 22:40:00,
2013-01-06 14:45:00,44.8,41.2,30.07,ESE,113,0.2,3.1,87,0.00,,,0.01,WUHU216HW,2013-01-06 22:45:00,
2013-01-06 14:50:00,44.8,41.2,30.07,West,270,0.7,0.9,87,0.00,,,0.01,WUHU216HW,2013-01-06 22:50:00,
2013-01-06 14:55:00,44.8,41.2,30.07,SE,135,0.2,2.0,87,0.00,,,0.01,WUHU216HW,2013-01-06 22:55:00,
2013-01-06 15:00:00,45.0,41.4,30.07,SW,225,1.8,2.0,87,0.00,,,0.01,WUHU216HW,2013-01-06 23:00:00,
2013-01-06 15:05:00,44.8,41.2,30.07,SE,135,2.2,2.2,87,0.00,,,0.01,WUHU216HW,2013-01-06 23:05:00,
2013-01-06 15:10:00,44.6,41.1,30.06,SSE,158,0.0,3.4,87,0.00,,,0.01,WUHU216HW,2013-01-06 23:10:00,
2013-01-06 15:15:00,44.6,41.1,30.06,SE,135,0.0,3.4,87,0.00,,,0.01,WUHU216HW,2013-01-06 23:15:00,
2013-01-06 15:20:00,44.6,41.1,30.06,SW,225,0.4,2.2,87,0.00,,,0.01,WUHU216HW,2013-01-06 23:20:00,
2013-01-06 15:25:00,44.6,41.1,30.07,SE,135,0.4,1.6,87,0.00,,,0.01,WUHU216HW,2013-01-06 23:25:00,
2013-01-06 15:30:00,44.6,41.1,30.07,SSE,158,0.4,1.8,87,0.01,,,0.02,WUHU216HW,2013-01-06 23:30:00,
2013-01-06 15:35:00,44.5,40.9,30.07,SSE,158,2.5,2.5,87,0.01,,,0.02,WUHU216HW,2013-01-06 23:35:00,
2013-01-06 15:40:00,44.3,41.0,30.07,SE,135,1.8,4.3,88,0.01,,,0.02,WUHU216HW,2013-01-06 23:40:00,
2013-01-06 15:45:00,44.1,40.8,30.06,SSE,158,1.8,4.3,88,0.02,,,0.02,WUHU216HW,2013-01-06 23:45:00,
2013-01-06 15:50:00,43.9,40.6,30.07,ESE,113,1.1,2.9,88,0.02,,,0.03,WUHU216HW,2013-01-06 23:50:00,
2013-01-06 15:55:00,43.7,40.4,30.07,SE,135,0.4,4.3,88,0.02,,,0.03,WUHU216HW,2013-01-06 23:55:00,
2013-01-06 16:00:00,43.7,40.4,30.07,South,180,1.3,4.3,88,0.02,,,0.03,WUHU216HW,2013-01-07 00:00:00,
2013-01-06 16:05:00,43.6,40.2,30.07,SSE,158,3.4,3.4,88,0.02,,,0.03,WUHU216HW,2013-01-07 00:05:00,
2013-01-06 16:10:00,43.6,40.6,30.07,SE,135,2.0,5.4,89,0.02,,,0.03,WUHU216HW,2013-01-07 00:10:00,
2013-01-06 16:15:00,43.4,40.1,30.07,SE,135,1.3,5.4,88,0.03,,,0.04,WUHU216HW,2013-01-07 00:15:00,
2013-01-06 16:20:00,43.4,40.1,30.06,SE,135,1.6,4.0,88,0.03,,,0.04,WUHU216HW,2013-01-07 00:20:00,
2013-01-06 16:25:00,43.2,39.9,30.06,SSE,158,1.8,4.0,88,0.02,,,0.04,WUHU216HW,2013-01-07 00:25:00,
2013-01-06 16:30:00,43.2,39.9,30.06,ENE,68,1.1,2.5,88,0.02,,,0.04,WUHU216HW,2013-01-07 00:30:00,
2013-01-06 16:35:00,43.2,39.9,30.06,SSE,158,1.1,1.3,88,0.02,,,0.04,WUHU216HW,2013-01-07 00:35:00,
2013-01-06 16:40:00,43.2,40.2,30.06,NNW,338,0.9,2.7,89,0.01,,,0.04,WUHU216HW,2013-01-07 00:40:00,
2013-01-06 16:45:00,43.0,40.1,30.05,North,0,0.4,2.7,89,0.01,,,0.04,WUHU216HW,2013-01-07 00:45:00,
2013-01-06 16:50:00,43.0,40.1,30.05,ENE,68,1.6,2.5,89,0.01,,,0.04,WUHU216HW,2013-01-07 00:50:00,
2013-01-06 16:55:00,43.0,40.1,30.04,South,180,2.5,2.5,89,0.01,,,0.04,WUHU216HW,2013-01-07 00:55:00,
2013-01-06 17:01:00,42.8,39.9,30.05,WSW,248,0.2,2.5,89,0.01,,,0.04,WUHU216HW,2013-01-07 01:01:00,
2013-01-06 17:06:00,42.8,39.9,30.04,SSE,158,1.3,4.5,89,0.01,,,0.04,WUHU216HW,2013-01-07 01:06:00,
2013-01-06 17:11:00,42.8,39.9,30.04,ESE,113,4.0,4.7,89,0.02,,,0.05,WUHU216HW,2013-01-07 01:11:00,
2013-01-06 17:16:00,42.8,39.9,30.04,ESE,113,1.6,4.7,89,0.01,,,0.05,WUHU216HW,2013-01-07 01:16:00,
2013-01-06 17:21:00,42.8,40.1,30.04,SE,135,4.3,5.4,90,0.01,,,0.05,WUHU216HW,2013-01-07 01:21:00,
2013-01-06 17:26:00,42.8,40.1,30.04,SE,135,4.3,5.4,90,0.01,,,0.05,WUHU216HW,2013-01-07 01:26:00,
2013-01-06 17:31:00,42.8,40.1,30.03,SE,135,2.7,4.7,90,0.01,,,0.05,WUHU216HW,2013-01-07 01:31:00,
2013-01-06 17:36:00,42.8,40.1,30.04,SSE,158,2.5,6.0,90,0.02,,,0.06,WUHU216HW,2013-01-07 01:36:00,
2013-01-06 17:41:00,42.8,40.1,30.03,East,90,1.3,6.0,90,0.02,,,0.06,WUHU216HW,2013-01-07 01:41:00,
2013-01-06 17:46:00,42.8,40.1,30.03,SE,135,6.5,6.5,90,0.02,,,0.06,WUHU216HW,2013-01-07 01:46:00,
2013-01-06 17:51:00,42.8,40.1,30.03,SE,135,2.0,6.5,90,0.02,,,0.06,WUHU216HW,2013-01-07 01:51:00,
2013-01-06 17:56:00,42.8,40.1,30.03,ESE,113,3.4,3.6,90,0.03,,,0.07,WUHU216HW,2013-01-07 01:56:00,
2013-01-06 18:01:00,42.8,40.1,30.03,SSE,158,0.4,7.2,90,0.03,,,0.07,WUHU216HW,2013-01-07 02:01:00,
2013-01-06 18:06:00,42.8,40.1,30.03,ESE,113,1.8,7.2,90,0.02,,,0.07,WUHU216HW,2013-01-07 02:06:00,
2013-01-06 18:11:00,42.8,40.1,30.02,South,180,2.5,3.4,90,0.02,,,0.07,WUHU216HW,2013-01-07 02:11:00,
2013-01-06 18:16:00,42.8,40.1,30.02,SSE,158,1.3,5.8,90,0.02,,,0.07,WUHU216HW,2013-01-07 02:16:00,
2013-01-06 18:21:00,42.8,40.1,30.02,SE,135,4.7,6.0,90,0.02,,,0.07,WUHU216HW,2013-01-07 02:21:00,
2013-01-06 18:26:00,42.8,40.1,30.03,SSE,158,2.5,7.4,90,0.02,,,0.07,WUHU216HW,2013-01-07 02:26:00,
2013-01-06 18:31:00,42.8,40.1,30.03,ESE,113,2.5,7.4,90,0.03,,,0.08,WUHU216HW,2013-01-07 02:31:00,
2013-01-06 18:36:00,42.8,40.1,30.03,NE,45,1.1,6.0,90,0.02,,,0.08,WUHU216HW,2013-01-07 02:36:00,
2013-01-06 18:41:00,42.8,40.1,30.03,SE,135,1.6,4.9,90,0.03,,,0.09,WUHU216HW,2013-01-07 02:41:00,
2013-01-06 18:46:00,42.8,40.1,30.02,WSW,248,1.1,3.6,90,0.03,,,0.09,WUHU216HW,2013-01-07 02:46:00,
2013-01-06 18:51:00,42.8,40.1,30.02,SSE,158,1.1,4.7,90,0.03,,,0.10,WUHU216HW,2013-01-07 02:51:00,
2013-01-06 18:56:00,42.8,40.1,30.02,ESE,113,4.5,4.7,90,0.03,,,0.10,WUHU216HW,2013-01-07 02:56:00,
2013-01-06 19:01:00,42.8,40.1,30.02,ENE,68,6.0,6.9,90,0.04,,,0.11,WUHU216HW,2013-01-07 03:01:00,
2013-01-06 19:06:00,42.8,40.1,30.02,ESE,113,3.4,6.9,90,0.04,,,0.11,WUHU216HW,2013-01-07 03:06:00,
2013-01-06 19:11:00,42.8,40.1,30.02,ESE,113,4.7,5.4,90,0.04,,,0.11,WUHU216HW,2013-01-07 03:11:00,
2013-01-06 19:16:00,42.8,40.1,30.02,East,90,2.7,5.4,90,0.05,,,0.12,WUHU216HW,2013-01-07 03:16:00,
2013-01-06 19:21:00,42.8,40.1,30.02,ESE,113,3.6,9.6,90,0.05,,,0.12,WUHU216HW,2013-01-07 03:21:00,
2013-01-06 19:26:00,42.8,40.1,30.02,North,0,1.3,9.6,90,0.05,,,0.12,WUHU216HW,2013-01-07 03:26:00,
2013-01-06 19:31:00,42.8,40.1,30.02,SSE,158,6.3,8.1,90,0.05,,,0.13,WUHU216HW,2013-01-07 03:31:00,
2013-01-06 19:36:00,42.8,40.1,30.02,SSW,203,1.3,6.3,90,0.04,,,0.13,WUHU216HW,2013-01-07 03:36:00,
2013-01-06 19:41:00,42.8,40.1,30.01,SSE,158,6.9,6.9,90,0.05,,,0.14,WUHU216HW,2013-01-07 03:41:00,
2013-01-06 19:46:00,42.8,40.1,30.01,South,180,2.9,6.9,90,0.04,,,0.14,WUHU216HW,2013-01-07 03:46:00,
2013-01-06 19:51:00,42.8,40.1,30.01,East,90,4.0,6.7,90,0.05,,,0.16,WUHU216HW,2013-01-07 03:51:00,
2013-01-06 19:56:00,42.7,40.0,30.01,SE,135,6.7,6.7,90,0.04,,,0.16,WUHU216HW,2013-01-07 03:56:00,
2013-01-06 20:01:00,42.8,40.1,30.01,SE,135,6.7,6.7,90,0.05,,,0.16,WUHU216HW,2013-01-07 04:01:00,
2013-01-06 20:06:00,42.7,40.2,30.00,SE,135,2.2,6.7,91,0.05,,,0.16,WUHU216HW,2013-01-07 04:06:00,
2013-01-06 20:11:00,42.7,40.2,30.00,SE,135,6.9,7.2,91,0.05,,,0.18,WUHU216HW,2013-01-07 04:11:00,